createdAt,value
2019-06-20T00:01:33.745Z,21.30
2019-06-20T00:04:00.198Z,21.40
2019-06-20T00:06:26.727Z,21.40
2019-06-20T00:08:53.163Z,21.50
2019-06-20T00:11:19.538Z,21.50
2019-06-20T00:13:46.091Z,21.50
2019-06-20T00:16:12.361Z,21.60
2019-06-20T00:18:38.829Z,21.60
2019-06-20T00:21:05.222Z,21.60
2019-06-20T00:23:31.420Z,21.60
2019-06-20T00:25:57.647Z,21.60
2019-06-20T00:28:23.909Z,21.60
2019-06-20T00:30:50.245Z,21.70
2019-06-20T00:33:16.494Z,21.60
2019-06-20T00:35:42.706Z,21.60
2019-06-20T00:38:08.958Z,21.60
2019-06-20T00:40:35.202Z,21.60
2019-06-20T00:43:16.295Z,21.60
2019-06-20T00:45:29.586Z,21.50
2019-06-20T00:47:55.889Z,21.50
2019-06-20T00:50:22.119Z,21.50
2019-06-20T00:52:48.401Z,21.40
2019-06-20T00:55:14.634Z,21.40
2019-06-20T00:57:40.884Z,21.40
2019-06-20T01:00:08.639Z,21.40
2019-06-20T01:02:35.054Z,21.40
2019-06-20T01:05:01.535Z,21.40
2019-06-20T01:07:27.769Z,21.30
2019-06-20T01:09:54.062Z,21.30
2019-06-20T01:12:20.565Z,21.20
2019-06-20T01:14:46.917Z,21.20
2019-06-20T01:17:13.299Z,21.20
2019-06-20T01:19:39.553Z,21.20
2019-06-20T01:22:05.819Z,21.10
2019-06-20T01:24:32.064Z,21.10
2019-06-20T01:27:36.759Z,21.10
2019-06-20T01:30:07.007Z,21.10
2019-06-20T01:32:33.264Z,21.10
2019-06-20T01:34:59.538Z,21.10
2019-06-20T01:37:25.829Z,21.10
2019-06-20T01:39:52.151Z,21.10
2019-06-20T01:42:18.408Z,21.20
2019-06-20T01:44:44.671Z,21.20
2019-06-20T01:47:10.915Z,21.20
2019-06-20T01:49:37.155Z,21.20
2019-06-20T01:52:03.816Z,21.20
2019-06-20T01:54:30.284Z,21.20
2019-06-20T01:56:56.515Z,21.20
2019-06-20T01:59:22.881Z,21.20
2019-06-20T02:01:49.372Z,21.20
2019-06-20T02:04:15.622Z,21.20
2019-06-20T02:06:42.052Z,21.20
2019-06-20T02:09:08.495Z,21.20
2019-06-20T02:11:35.133Z,21.10
2019-06-20T02:14:07.089Z,21.10
2019-06-20T02:16:29.837Z,21.10
2019-06-20T02:18:56.079Z,21.00
2019-06-20T02:21:22.502Z,20.90
2019-06-20T02:23:48.775Z,20.80
2019-06-20T02:26:15.022Z,20.70
2019-06-20T02:28:41.293Z,20.50
2019-06-20T02:31:07.656Z,20.40
2019-06-20T02:33:34.146Z,20.30
2019-06-20T02:36:00.615Z,20.20
2019-06-20T02:38:26.876Z,20.10
2019-06-20T02:40:53.199Z,20.00
2019-06-20T02:43:19.434Z,19.90
2019-06-20T02:45:45.766Z,19.90
2019-06-20T02:48:12.085Z,19.80
2019-06-20T02:50:38.475Z,19.80
2019-06-20T02:53:04.891Z,19.70
2019-06-20T02:55:31.491Z,19.70
2019-06-20T02:57:57.724Z,19.70
2019-06-20T03:00:38.520Z,19.70
2019-06-20T03:03:04.835Z,19.60
2019-06-20T03:05:31.091Z,19.50
2019-06-20T03:07:57.349Z,19.50
2019-06-20T03:10:23.823Z,19.40
2019-06-20T03:12:50.059Z,19.40
2019-06-20T03:15:16.637Z,19.40
2019-06-20T03:17:42.895Z,19.40
2019-06-20T03:20:10.222Z,19.40
2019-06-20T03:22:36.581Z,19.40
2019-06-20T03:25:04.226Z,19.40
2019-06-20T03:27:30.485Z,19.40
2019-06-20T03:29:56.733Z,19.40
2019-06-20T03:32:23.122Z,19.40
2019-06-20T03:34:49.369Z,19.40
2019-06-20T03:37:15.676Z,19.40
2019-06-20T03:39:41.950Z,19.40
2019-06-20T03:42:08.225Z,19.50
2019-06-20T03:44:34.431Z,19.50
2019-06-20T03:47:00.690Z,19.50
2019-06-20T03:49:27.188Z,19.50
2019-06-20T03:51:53.544Z,19.50
2019-06-20T03:54:19.795Z,19.50
2019-06-20T03:56:46.054Z,19.40
2019-06-20T03:59:12.287Z,19.40
2019-06-20T04:01:38.541Z,19.40
2019-06-20T04:04:04.771Z,19.30
2019-06-20T04:06:31.052Z,19.30
2019-06-20T04:08:57.279Z,19.20
2019-06-20T04:11:23.558Z,19.20
2019-06-20T04:13:49.825Z,19.20
2019-06-20T04:16:16.088Z,19.20
2019-06-20T04:18:42.327Z,19.20
2019-06-20T04:21:08.571Z,19.20
2019-06-20T04:23:34.843Z,19.20
2019-06-20T04:26:01.216Z,19.20
2019-06-20T04:28:27.832Z,19.20
2019-06-20T04:30:54.086Z,19.20
2019-06-20T04:33:20.370Z,19.20
2019-06-20T04:35:46.594Z,19.20
2019-06-20T04:38:13.065Z,19.20
2019-06-20T04:40:39.443Z,19.30
2019-06-20T04:43:05.704Z,19.30
2019-06-20T04:45:35.411Z,19.30
2019-06-20T04:48:02.218Z,19.30
2019-06-20T04:50:28.600Z,19.30
2019-06-20T04:52:54.892Z,19.30
2019-06-20T04:55:21.222Z,19.40
2019-06-20T04:57:47.472Z,19.30
2019-06-20T05:00:14.313Z,19.40
2019-06-20T05:02:40.611Z,19.40
2019-06-20T05:05:07.452Z,19.40
2019-06-20T05:07:33.892Z,19.50
2019-06-20T05:10:00.174Z,19.50
2019-06-20T05:12:26.404Z,19.50
2019-06-20T05:14:52.641Z,19.50
2019-06-20T05:17:18.894Z,19.60
2019-06-20T05:19:45.328Z,19.60
2019-06-20T05:22:11.594Z,19.70
2019-06-20T05:24:38.030Z,19.80
2019-06-20T05:27:04.238Z,19.90
2019-06-20T05:29:30.489Z,19.90
2019-06-20T05:31:56.751Z,20.00
2019-06-20T05:34:24.336Z,20.10
2019-06-20T05:36:51.021Z,20.10
2019-06-20T05:39:17.557Z,20.10
2019-06-20T05:41:45.108Z,20.20
2019-06-20T05:44:11.388Z,20.20
2019-06-20T05:46:37.744Z,20.30
2019-06-20T05:49:04.733Z,20.30
2019-06-20T05:51:31.234Z,20.30
2019-06-20T05:53:59.744Z,20.40
2019-06-20T05:56:38.974Z,20.40
2019-06-20T05:58:56.916Z,20.50
2019-06-20T06:01:26.384Z,20.60
2019-06-20T06:03:53.067Z,20.70
2019-06-20T06:06:26.639Z,21.00
2019-06-20T06:09:01.863Z,21.20
2019-06-20T06:11:28.269Z,21.30
2019-06-20T06:13:54.630Z,21.40
2019-06-20T06:16:34.039Z,21.50
2019-06-20T06:19:04.589Z,21.50
2019-06-20T06:21:32.709Z,21.50
2019-06-20T06:23:59.051Z,21.60
2019-06-20T06:26:25.306Z,21.60
2019-06-20T06:28:51.573Z,21.60
2019-06-20T06:31:17.818Z,21.50
2019-06-20T06:33:44.051Z,21.50
2019-06-20T06:36:10.295Z,21.50
2019-06-20T06:38:36.536Z,21.40
2019-06-20T06:41:03.158Z,21.40
2019-06-20T06:43:29.409Z,21.40
2019-06-20T06:45:55.887Z,21.40
2019-06-20T06:48:22.125Z,21.50
2019-06-20T06:50:48.364Z,21.60
2019-06-20T06:53:14.637Z,21.60
2019-06-20T06:55:40.886Z,21.80
2019-06-20T06:58:07.147Z,21.90
2019-06-20T07:00:33.462Z,22.00
2019-06-20T07:02:59.730Z,22.10
2019-06-20T07:05:26.288Z,22.30
2019-06-20T07:07:52.521Z,22.40
2019-06-20T07:10:19.357Z,22.70
2019-06-20T07:12:45.645Z,23.00
2019-06-20T07:15:14.677Z,23.40
2019-06-20T07:17:41.143Z,23.90
2019-06-20T07:20:08.730Z,24.30
2019-06-20T07:22:35.080Z,24.70
2019-06-20T07:25:02.507Z,24.80
2019-06-20T07:27:28.902Z,24.90
2019-06-20T07:29:55.145Z,25.00
2019-06-20T07:32:21.367Z,25.00
2019-06-20T07:34:48.110Z,25.10
2019-06-20T07:37:14.608Z,25.10
2019-06-20T07:39:40.837Z,25.10
2019-06-20T07:42:07.096Z,25.10
2019-06-20T07:44:33.332Z,25.30
2019-06-20T07:46:59.723Z,25.70
2019-06-20T07:49:26.385Z,26.10
2019-06-20T07:51:52.641Z,26.70
2019-06-20T07:54:19.133Z,26.90
2019-06-20T07:56:45.639Z,27.20
2019-06-20T07:59:12.106Z,27.40
2019-06-20T08:01:39.495Z,27.40
2019-06-20T08:04:07.849Z,27.30
2019-06-20T08:06:34.124Z,27.30
2019-06-20T08:09:00.475Z,27.40
2019-06-20T08:11:27.145Z,27.80
2019-06-20T08:13:53.386Z,28.20
2019-06-20T08:16:19.741Z,28.50
2019-06-20T08:18:45.997Z,28.50
2019-06-20T08:24:32.389Z,28.50
2019-06-20T08:27:00.364Z,28.20
2019-06-20T08:29:26.725Z,28.10
2019-06-20T08:31:52.974Z,28.00
2019-06-20T08:34:19.217Z,28.00
2019-06-20T08:36:45.460Z,28.00
2019-06-20T08:39:11.945Z,28.20
2019-06-20T08:41:38.179Z,28.10
2019-06-20T08:44:06.165Z,27.80
2019-06-20T08:46:33.486Z,27.50
2019-06-20T08:52:36.743Z,26.80
2019-06-20T08:56:14.252Z,26.20
2019-06-20T08:58:55.762Z,25.80
2019-06-20T09:01:23.053Z,25.40
2019-06-20T09:03:50.737Z,25.20
2019-06-20T09:06:16.961Z,25.10
2019-06-20T09:08:43.189Z,25.00
2019-06-20T09:11:09.438Z,24.90
2019-06-20T09:13:36.083Z,24.80
2019-06-20T09:16:03.503Z,24.70
2019-06-20T09:18:30.118Z,24.70
2019-06-20T09:20:58.018Z,24.70
2019-06-20T09:23:24.765Z,24.70
2019-06-20T09:29:22.921Z,24.80
2019-06-20T09:31:53.788Z,25.40
2019-06-20T09:34:21.521Z,25.80
2019-06-20T09:36:47.824Z,26.30
2019-06-20T09:39:14.093Z,26.60
2019-06-20T09:41:40.822Z,26.80
2019-06-20T09:44:09.971Z,27.10
2019-06-20T09:46:40.833Z,27.20
2019-06-20T09:49:07.098Z,27.20
2019-06-20T09:51:34.280Z,27.10
2019-06-20T09:54:00.600Z,27.20
2019-06-20T09:56:27.006Z,27.50
2019-06-20T09:58:53.296Z,27.80
2019-06-20T10:01:19.556Z,28.00
2019-06-20T10:03:46.451Z,28.00
2019-06-20T10:06:14.748Z,27.90
2019-06-20T10:08:46.619Z,27.90
2019-06-20T10:11:14.622Z,28.10
2019-06-20T10:16:28.301Z,28.50
2019-06-20T10:18:56.479Z,28.60
2019-06-20T10:21:23.553Z,28.60
2019-06-20T10:23:53.987Z,28.40
2019-06-20T10:26:22.367Z,28.20
2019-06-20T10:28:53.109Z,28.10
2019-06-20T10:31:20.193Z,27.90
2019-06-20T10:33:46.922Z,27.90
2019-06-20T10:36:13.294Z,27.80
2019-06-20T10:38:40.022Z,27.70
2019-06-20T10:41:06.970Z,27.70
2019-06-20T10:43:33.371Z,27.60
2019-06-20T10:46:04.960Z,27.50
2019-06-20T10:48:31.198Z,27.50
2019-06-20T10:51:18.415Z,27.40
2019-06-20T10:53:45.690Z,27.30
2019-06-20T10:59:25.290Z,27.10
2019-06-20T11:02:28.269Z,26.80
2019-06-20T11:05:07.433Z,26.70
2019-06-20T11:07:42.076Z,26.50
2019-06-20T11:10:12.461Z,26.40
2019-06-20T11:12:47.923Z,26.30
2019-06-20T11:15:13.326Z,26.20
2019-06-20T11:17:41.939Z,26.30
2019-06-20T11:20:11.270Z,26.50
2019-06-20T11:22:41.639Z,26.80
2019-06-20T11:25:09.058Z,27.00
2019-06-20T11:27:37.058Z,27.20
2019-06-20T11:30:12.449Z,27.30
2019-06-20T11:32:50.718Z,27.40
2019-06-20T11:35:14.831Z,27.40
2019-06-20T11:37:42.283Z,27.30
2019-06-20T11:40:11.143Z,27.30
2019-06-20T11:42:38.033Z,27.20
2019-06-20T11:45:06.546Z,27.00
2019-06-20T11:47:34.902Z,27.00
2019-06-20T11:50:01.742Z,26.90
2019-06-20T11:52:28.158Z,26.90
2019-06-20T11:54:54.805Z,26.90
2019-06-20T11:57:21.223Z,26.80
2019-06-20T11:59:47.446Z,26.80
2019-06-20T12:02:13.948Z,26.70
2019-06-20T12:04:41.546Z,26.70
2019-06-20T12:07:08.853Z,26.50
2019-06-20T12:09:36.590Z,26.50
2019-06-20T12:12:03.023Z,26.40
2019-06-20T12:14:29.275Z,26.40
2019-06-20T12:16:56.123Z,26.40
2019-06-20T12:19:22.445Z,26.40
2019-06-20T12:21:49.156Z,26.30
2019-06-20T12:24:15.474Z,26.30
2019-06-20T12:26:42.424Z,26.30
2019-06-20T12:29:08.847Z,26.20
2019-06-20T12:31:35.077Z,26.20
2019-06-20T12:34:01.306Z,26.30
2019-06-20T12:36:27.797Z,26.30
2019-06-20T12:38:54.008Z,26.20
2019-06-20T12:41:20.269Z,26.20
2019-06-20T12:43:46.658Z,26.20
2019-06-20T12:46:12.887Z,26.20
2019-06-20T12:48:39.941Z,26.20
2019-06-20T12:51:07.255Z,26.10
2019-06-20T12:53:33.552Z,26.10
2019-06-20T12:56:00.111Z,26.10
2019-06-20T12:58:26.357Z,26.00
2019-06-20T13:00:52.596Z,26.00
2019-06-20T13:03:18.875Z,26.00
2019-06-20T13:05:45.113Z,25.90
2019-06-20T13:08:13.526Z,25.90
2019-06-20T13:10:40.308Z,25.80
2019-06-20T13:13:06.779Z,25.70
2019-06-20T13:15:46.933Z,25.70
2019-06-20T13:18:13.417Z,25.60
2019-06-20T13:20:40.630Z,25.50
2019-06-20T13:23:07.499Z,25.50
2019-06-20T13:25:33.754Z,25.40
2019-06-20T13:28:00.465Z,25.40
2019-06-20T13:30:26.939Z,25.30
2019-06-20T13:32:53.176Z,25.20
2019-06-20T13:35:19.711Z,25.20
2019-06-20T13:37:47.669Z,25.10
2019-06-20T13:40:15.402Z,25.00
2019-06-20T13:42:44.168Z,25.00
2019-06-20T13:45:24.553Z,24.90
2019-06-20T13:47:51.219Z,24.70
2019-06-20T13:50:18.555Z,24.60
2019-06-20T13:52:49.005Z,24.50
2019-06-20T13:55:15.197Z,24.50
2019-06-20T13:57:42.913Z,24.40
2019-06-20T14:00:11.018Z,24.30
2019-06-20T14:02:38.124Z,24.20
2019-06-20T14:05:05.831Z,24.10
2019-06-20T14:07:32.379Z,24.10
2019-06-20T14:09:59.015Z,24.00
2019-06-20T14:12:25.291Z,23.90
2019-06-20T14:14:52.289Z,23.90
2019-06-20T14:17:18.845Z,23.80
2019-06-20T14:19:46.883Z,23.70
2019-06-20T14:22:13.140Z,23.70
2019-06-20T14:24:39.367Z,23.50
2019-06-20T14:27:05.693Z,23.10
2019-06-20T14:29:32.010Z,22.40
2019-06-20T14:31:58.261Z,21.60
2019-06-20T14:34:24.483Z,20.90
2019-06-20T14:36:52.274Z,20.20
2019-06-20T14:39:19.134Z,19.60
2019-06-20T14:41:46.411Z,19.10
2019-06-20T14:44:12.752Z,18.80
2019-06-20T14:46:39.200Z,18.50
2019-06-20T14:49:05.632Z,18.30
2019-06-20T14:51:32.749Z,18.20
2019-06-20T14:53:59.265Z,18.10
2019-06-20T14:56:25.489Z,18.10
2019-06-20T14:58:51.731Z,18.00
2019-06-20T15:01:17.966Z,18.00
2019-06-20T15:03:45.580Z,17.90
2019-06-20T15:06:12.354Z,17.90
2019-06-20T15:08:38.612Z,17.90
2019-06-20T15:11:05.060Z,17.90
2019-06-20T15:13:31.315Z,17.80
2019-06-20T15:15:57.585Z,17.80
2019-06-20T15:18:24.021Z,17.80
2019-06-20T15:20:51.626Z,17.80
2019-06-20T15:23:18.292Z,17.80
2019-06-20T15:25:45.821Z,17.80
2019-06-20T15:28:14.905Z,17.70
2019-06-20T15:30:41.165Z,17.70
2019-06-20T15:33:10.303Z,17.70
2019-06-20T15:35:35.536Z,17.80
2019-06-20T15:38:02.104Z,17.70
2019-06-20T15:40:28.442Z,17.80
2019-06-20T15:42:55.370Z,17.80
2019-06-20T15:45:23.630Z,17.90
2019-06-20T15:47:49.894Z,17.90
2019-06-20T15:50:16.735Z,17.90
2019-06-20T15:52:43.056Z,17.90
2019-06-20T15:55:09.820Z,17.90
2019-06-20T15:57:36.058Z,17.90
2019-06-20T16:00:09.996Z,18.00
2019-06-20T16:02:36.351Z,18.00
2019-06-20T16:05:07.124Z,18.10
2019-06-20T16:07:33.372Z,18.10
2019-06-20T16:09:59.656Z,18.10
2019-06-20T16:12:25.854Z,18.10
2019-06-20T16:14:52.170Z,18.10
2019-06-20T16:17:18.463Z,18.20
2019-06-20T16:19:44.749Z,18.30
2019-06-20T16:22:10.994Z,18.40
2019-06-20T16:24:37.233Z,18.40
2019-06-20T16:27:03.650Z,18.50
2019-06-20T16:29:29.861Z,18.50
2019-06-20T16:31:56.123Z,18.60
2019-06-20T16:34:22.359Z,18.70
2019-06-20T16:36:48.894Z,18.80
2019-06-20T16:39:15.144Z,18.90
2019-06-20T16:41:41.431Z,18.90
2019-06-20T16:44:07.688Z,18.90
2019-06-20T16:46:34.035Z,18.90
2019-06-20T16:49:00.278Z,19.00
2019-06-20T16:51:26.550Z,19.00
2019-06-20T16:53:52.851Z,19.00
2019-06-20T16:56:19.120Z,19.10
2019-06-20T16:58:45.414Z,19.10
2019-06-20T17:01:11.801Z,19.20
2019-06-20T17:03:41.811Z,19.20
2019-06-20T17:06:06.246Z,19.20
2019-06-20T17:08:32.823Z,19.20
2019-06-20T17:10:59.198Z,19.30
2019-06-20T17:13:25.457Z,19.30
2019-06-20T17:15:51.733Z,19.30
2019-06-20T17:18:18.215Z,19.30
2019-06-20T17:20:44.436Z,19.30
2019-06-20T17:23:10.807Z,19.30
2019-06-20T17:25:37.326Z,19.30
2019-06-20T17:28:04.002Z,19.30
2019-06-20T17:30:30.431Z,19.30
2019-06-20T17:32:56.668Z,19.30
2019-06-20T17:35:23.490Z,19.30
2019-06-20T17:37:49.840Z,19.20
2019-06-20T17:40:17.562Z,19.10
2019-06-20T17:42:44.004Z,19.10
2019-06-20T17:45:13.093Z,19.10
2019-06-20T17:47:39.547Z,19.10
2019-06-20T17:50:09.385Z,19.20
2019-06-20T17:52:35.601Z,19.10
2019-06-20T17:55:04.148Z,19.10
2019-06-20T17:57:30.414Z,19.10
2019-06-20T17:59:56.665Z,19.10
2019-06-20T18:02:22.928Z,19.20
2019-06-20T18:04:49.141Z,19.10
2019-06-20T18:07:15.470Z,19.20
2019-06-20T18:09:41.693Z,19.20
2019-06-20T18:12:07.932Z,19.20
2019-06-20T18:14:34.354Z,19.10
2019-06-20T18:17:00.785Z,19.10
2019-06-20T18:19:27.356Z,19.10
2019-06-20T18:21:53.595Z,19.00
2019-06-20T18:24:20.026Z,18.90
2019-06-20T18:26:46.290Z,19.00
2019-06-20T18:29:14.464Z,19.00
2019-06-20T18:31:42.471Z,18.90
2019-06-20T18:34:09.007Z,19.00
2019-06-20T18:36:35.281Z,18.90
2019-06-20T18:39:01.530Z,18.90
2019-06-20T18:41:27.778Z,18.90
2019-06-20T18:43:54.017Z,18.90
2019-06-20T18:46:20.326Z,18.90
2019-06-20T18:48:46.567Z,18.90
2019-06-20T18:51:12.894Z,18.90
2019-06-20T18:53:50.585Z,18.90
2019-06-20T18:56:16.155Z,18.90
2019-06-20T18:58:42.407Z,18.80
2019-06-20T19:01:08.660Z,18.70
2019-06-20T19:03:34.900Z,18.70
2019-06-20T19:06:01.189Z,18.70
2019-06-20T19:08:27.424Z,18.70
2019-06-20T19:10:53.699Z,18.70
2019-06-20T19:13:19.960Z,18.60
2019-06-20T19:15:46.210Z,18.60
2019-06-20T19:18:12.496Z,18.60
2019-06-20T19:20:38.755Z,18.60
2019-06-20T19:23:05.221Z,18.60
2019-06-20T19:25:31.471Z,18.50
2019-06-20T19:27:57.744Z,18.50
2019-06-20T19:30:44.250Z,18.40
2019-06-20T19:33:10.504Z,18.40
2019-06-20T19:35:36.956Z,18.40
2019-06-20T19:38:03.328Z,18.40
2019-06-20T19:40:35.365Z,18.30
2019-06-20T19:43:01.716Z,18.30
2019-06-20T19:45:27.968Z,18.30
2019-06-20T19:47:54.348Z,18.30
2019-06-20T19:50:21.308Z,18.30
2019-06-20T19:52:47.847Z,18.30
2019-06-20T19:55:15.365Z,18.30
2019-06-20T19:57:41.712Z,18.20
2019-06-20T20:00:10.462Z,18.20
2019-06-20T20:02:36.964Z,18.20
2019-06-20T20:05:18.290Z,18.20
2019-06-20T20:07:35.862Z,18.10
2019-06-20T20:10:06.561Z,18.00
2019-06-20T20:12:33.005Z,18.00
2019-06-20T20:14:59.620Z,17.90
2019-06-20T20:17:26.079Z,17.90
2019-06-20T20:19:52.293Z,17.80
2019-06-20T20:22:18.547Z,17.70
2019-06-20T20:24:44.890Z,17.70
2019-06-20T20:27:11.198Z,17.70
2019-06-20T20:29:37.437Z,17.70
2019-06-20T20:32:04.676Z,17.60
2019-06-20T20:34:31.210Z,17.60
2019-06-20T20:36:57.464Z,17.60
2019-06-20T20:39:23.684Z,17.60
2019-06-20T20:41:49.938Z,17.60
2019-06-20T20:44:16.159Z,17.50
2019-06-20T20:46:44.096Z,17.50
2019-06-20T20:49:10.883Z,17.50
2019-06-20T20:51:37.167Z,17.40
2019-06-20T20:54:03.411Z,17.50
2019-06-20T20:56:29.660Z,17.40
2019-06-20T20:58:55.967Z,17.40
2019-06-20T21:01:29.493Z,17.40
2019-06-20T21:03:55.945Z,17.40
2019-06-20T21:06:22.404Z,17.40
2019-06-20T21:08:48.991Z,17.40
2019-06-20T21:11:15.234Z,17.40
2019-06-20T21:13:41.505Z,17.30
2019-06-20T21:16:07.829Z,17.30
2019-06-20T21:18:34.397Z,17.30
2019-06-20T21:21:00.654Z,17.30
2019-06-20T21:23:26.942Z,17.30
2019-06-20T21:26:13.047Z,17.30
2019-06-20T21:28:39.291Z,17.20
2019-06-20T21:31:05.633Z,17.20
2019-06-20T21:33:31.875Z,17.20
2019-06-20T21:36:07.976Z,17.20
2019-06-20T21:38:26.360Z,17.10
2019-06-20T21:40:52.629Z,17.10
2019-06-20T21:43:18.865Z,17.00
2019-06-20T21:45:45.220Z,17.00
2019-06-20T21:48:13.369Z,17.00
2019-06-20T21:50:39.698Z,17.00
2019-06-20T21:53:05.957Z,16.90
2019-06-20T21:55:32.253Z,16.90
2019-06-20T21:57:58.694Z,16.90
2019-06-20T22:00:37.963Z,16.80
2019-06-20T22:03:04.844Z,16.80
2019-06-20T22:05:31.070Z,16.70
2019-06-20T22:07:57.712Z,16.80
2019-06-20T22:10:24.309Z,16.70
2019-06-20T22:12:50.585Z,16.70
2019-06-20T22:15:17.465Z,16.70
2019-06-20T22:17:44.028Z,16.70
2019-06-20T22:20:11.935Z,16.70
2019-06-20T22:22:38.172Z,16.70
2019-06-20T22:25:07.793Z,16.70
2019-06-20T22:27:34.602Z,16.70
2019-06-20T22:30:03.665Z,16.70
2019-06-20T22:32:29.234Z,16.60
2019-06-20T22:34:55.528Z,16.60
2019-06-20T22:37:21.783Z,16.60
2019-06-20T22:39:48.042Z,16.60
2019-06-20T22:42:14.295Z,16.60
2019-06-20T22:44:40.546Z,16.60
2019-06-20T22:47:06.780Z,16.50
2019-06-20T22:49:33.042Z,16.60
2019-06-20T22:51:59.297Z,16.50
2019-06-20T22:54:25.583Z,16.50
2019-06-20T22:56:51.823Z,16.50
2019-06-20T22:59:18.062Z,16.50
2019-06-20T23:01:44.278Z,16.50
2019-06-20T23:04:10.515Z,16.50
2019-06-20T23:06:37.045Z,16.50
2019-06-20T23:09:06.198Z,16.50
2019-06-20T23:11:32.527Z,16.50
2019-06-20T23:13:58.774Z,16.50
2019-06-20T23:16:25.031Z,16.50
2019-06-20T23:18:51.493Z,16.50
2019-06-20T23:21:17.742Z,16.50
2019-06-20T23:23:44.005Z,16.50
2019-06-20T23:26:11.768Z,16.50
2019-06-20T23:28:37.993Z,16.50
2019-06-20T23:31:04.521Z,16.50
2019-06-20T23:33:30.767Z,16.50
2019-06-20T23:35:56.999Z,16.50
2019-06-20T23:38:23.562Z,16.50
2019-06-20T23:40:49.816Z,16.50
2019-06-20T23:43:16.080Z,16.50
2019-06-20T23:45:42.295Z,16.40
2019-06-20T23:48:08.544Z,16.40
2019-06-20T23:50:34.948Z,16.40
2019-06-20T23:53:03.159Z,16.50
2019-06-20T23:55:30.889Z,16.40
2019-06-20T23:57:57.134Z,16.40
